createdAt,value
2018-12-19T00:01:44.254Z,27.63
2018-12-19T00:04:31.635Z,29.03
2018-12-19T00:07:19.003Z,23.93
2018-12-19T00:10:08.754Z,35.17
2018-12-19T00:12:58.792Z,30.53
2018-12-19T00:15:47.630Z,33.90
2018-12-19T00:18:34.946Z,32.13
2018-12-19T00:21:22.208Z,34.23
2018-12-19T00:24:10.298Z,30.07
2018-12-19T00:26:58.215Z,30.00
2018-12-19T00:29:46.418Z,29.80
2018-12-19T00:32:35.173Z,34.27
2018-12-19T00:35:26.238Z,30.20
2018-12-19T00:38:13.680Z,31.27
2018-12-19T00:41:01.854Z,30.10
2018-12-19T00:43:49.563Z,27.93
2018-12-19T00:46:44.912Z,28.13
2018-12-19T00:49:32.868Z,25.13
2018-12-19T00:52:20.872Z,29.73
2018-12-19T00:55:08.963Z,36.08
2018-12-19T00:57:57.594Z,30.03
2018-12-19T01:00:45.913Z,36.20
2018-12-19T01:03:33.554Z,31.93
2018-12-19T01:06:20.835Z,26.73
2018-12-19T01:12:14.163Z,30.67
2018-12-19T01:15:02.619Z,28.70
2018-12-19T01:17:50.297Z,27.37
2018-12-19T01:20:39.614Z,27.10
2018-12-19T01:23:26.807Z,26.97
2018-12-19T01:26:14.421Z,26.03
2018-12-19T01:29:02.056Z,28.77
2018-12-19T01:31:49.205Z,28.27
2018-12-19T01:34:42.171Z,28.93
2018-12-19T01:59:21.409Z,36.67
2018-12-19T02:02:08.646Z,37.27
2018-12-19T02:05:05.397Z,50.97
2018-12-19T02:11:02.304Z,33.80
2018-12-19T02:13:49.311Z,36.93
2018-12-19T02:16:55.742Z,37.43
2018-12-19T02:19:44.628Z,33.83
2018-12-19T02:22:33.797Z,32.20
2018-12-19T02:25:21.312Z,34.07
2018-12-19T02:28:09.696Z,32.00
2018-12-19T02:30:57.476Z,33.23
2018-12-19T02:33:44.891Z,35.97
2018-12-19T02:36:33.113Z,37.07
2018-12-19T02:39:20.578Z,45.85
2018-12-19T02:42:08.477Z,41.80
2018-12-19T02:44:56.037Z,37.77
2018-12-19T02:47:42.924Z,33.67
2018-12-19T02:53:36.355Z,35.23
2018-12-19T02:56:23.638Z,47.70
2018-12-19T02:59:11.021Z,37.60
2018-12-19T03:11:17.292Z,31.60
2018-12-19T03:14:05.593Z,31.50
2018-12-19T03:16:52.709Z,36.23
2018-12-19T03:19:40.132Z,33.53
2018-12-19T03:28:55.879Z,43.95
2018-12-19T03:31:42.738Z,34.03
2018-12-19T03:34:30.371Z,34.83
2018-12-19T03:37:18.141Z,31.00
2018-12-19T03:40:05.427Z,30.03
2018-12-19T03:42:52.418Z,28.53
2018-12-19T03:52:08.635Z,37.57
2018-12-19T03:54:56.770Z,29.90
2018-12-19T03:57:43.697Z,28.73
2018-12-19T04:03:45.094Z,30.53
2018-12-19T04:06:33.679Z,31.43
2018-12-19T04:09:20.516Z,35.00
2018-12-19T04:15:14.670Z,32.17
2018-12-19T04:18:01.995Z,31.17
2018-12-19T04:20:53.120Z,34.33
2018-12-19T04:23:56.038Z,30.70
2018-12-19T04:26:47.021Z,34.87
2018-12-19T04:29:30.988Z,31.03
2018-12-19T04:32:18.379Z,31.27
2018-12-19T04:35:08.427Z,30.50
2018-12-19T04:44:09.176Z,33.47
2018-12-19T04:46:56.303Z,35.17
2018-12-19T04:52:53.920Z,41.88
2018-12-19T04:55:41.034Z,32.53
2018-12-19T04:58:27.855Z,34.00
2018-12-19T05:01:31.583Z,35.07
2018-12-19T05:04:34.136Z,31.13
2018-12-19T05:10:28.701Z,30.13
2018-12-19T05:13:16.063Z,42.30
2018-12-19T05:16:03.485Z,33.03
2018-12-19T05:18:59.168Z,28.93
2018-12-19T05:21:47.302Z,29.33
2018-12-19T05:27:47.774Z,27.17
2018-12-19T05:30:35.807Z,27.17
2018-12-19T05:33:23.720Z,26.67
2018-12-19T05:36:11.098Z,22.10
2018-12-19T05:38:58.067Z,27.13
2018-12-19T05:54:11.521Z,30.77
2018-12-19T05:56:58.551Z,25.87
2018-12-19T05:59:45.431Z,22.40
2018-12-19T06:02:33.194Z,23.63
2018-12-19T06:05:20.555Z,22.10
2018-12-19T06:08:09.600Z,23.80
2018-12-19T06:10:54.397Z,22.80
2018-12-19T06:20:01.940Z,18.07
2018-12-19T06:25:57.447Z,19.00
2018-12-19T06:28:46.305Z,16.80
2018-12-19T06:37:55.709Z,17.47
2018-12-19T06:43:49.596Z,16.40
2018-12-19T07:08:33.980Z,16.60
2018-12-19T07:11:21.339Z,14.43
2018-12-19T07:17:14.297Z,13.43
2018-12-19T07:20:01.336Z,13.60
2018-12-19T07:22:48.666Z,15.43
2018-12-19T07:25:35.992Z,14.93
2018-12-19T07:28:23.689Z,13.97
2018-12-19T07:31:11.586Z,14.40
2018-12-19T07:34:14.777Z,15.93
2018-12-19T07:37:10.268Z,12.97
2018-12-19T07:39:57.714Z,13.40
2018-12-19T07:42:44.984Z,12.80
2018-12-19T07:45:32.408Z,12.43
2018-12-19T07:48:19.875Z,18.02
2018-12-19T07:51:07.153Z,13.23
2018-12-19T07:53:55.351Z,14.17
2018-12-19T07:56:50.617Z,14.73
2018-12-19T07:59:38.213Z,12.67
2018-12-19T08:02:25.431Z,12.70
2018-12-19T08:05:12.923Z,13.53
2018-12-19T08:08:00.343Z,17.58
2018-12-19T08:10:52.219Z,15.40
2018-12-19T08:13:35.086Z,14.93
2018-12-19T08:16:30.041Z,12.47
2018-12-19T08:19:18.264Z,13.73
2018-12-19T08:22:05.818Z,16.43
2018-12-19T08:24:53.208Z,10.97
2018-12-19T08:27:41.084Z,14.23
2018-12-19T08:30:29.305Z,12.80
2018-12-19T08:33:17.438Z,13.77
2018-12-19T08:36:04.802Z,11.73
2018-12-19T08:38:52.234Z,11.13
2018-12-19T08:41:39.986Z,13.13
2018-12-19T08:44:28.687Z,13.40
2018-12-19T08:47:16.389Z,13.70
2018-12-19T08:50:05.053Z,13.23
2018-12-19T08:52:52.293Z,12.57
2018-12-19T08:55:39.291Z,12.57
2018-12-19T08:58:26.495Z,11.87
2018-12-19T09:01:14.479Z,13.17
2018-12-19T09:04:04.872Z,11.37
2018-12-19T09:06:52.405Z,12.00
2018-12-19T09:09:40.453Z,12.50
2018-12-19T09:12:28.072Z,12.63
2018-12-19T09:15:15.194Z,11.80
2018-12-19T09:18:03.148Z,10.37
2018-12-19T09:20:51.263Z,12.07
2018-12-19T09:23:39.580Z,14.13
2018-12-19T09:26:26.715Z,13.37
2018-12-19T09:29:21.288Z,10.87
2018-12-19T09:32:09.845Z,11.60
2018-12-19T09:34:58.292Z,12.23
2018-12-19T09:40:52.035Z,10.13
2018-12-19T09:43:39.660Z,12.73
2018-12-19T09:46:27.979Z,13.85
2018-12-19T09:49:20.864Z,12.17
2018-12-19T09:52:08.531Z,13.70
2018-12-19T09:54:55.977Z,11.53
2018-12-19T09:57:43.642Z,11.07
2018-12-19T10:00:31.134Z,11.47
2018-12-19T10:03:18.717Z,10.53
2018-12-19T10:06:08.484Z,12.77
2018-12-19T10:08:56.250Z,12.10
2018-12-19T10:11:43.614Z,10.70
2018-12-19T10:14:31.093Z,12.00
2018-12-19T10:17:19.073Z,14.00
2018-12-19T10:20:06.342Z,11.43
2018-12-19T10:23:00.753Z,10.37
2018-12-19T10:25:48.356Z,10.17
2018-12-19T10:28:35.819Z,12.10
2018-12-19T10:31:25.189Z,11.40
2018-12-19T10:34:13.352Z,12.53
2018-12-19T10:37:00.689Z,11.43
2018-12-19T10:39:50.198Z,8.93
2018-12-19T10:42:40.601Z,10.73
2018-12-19T10:51:44.417Z,10.50
2018-12-19T10:54:31.714Z,10.17
2018-12-19T10:57:19.485Z,11.60
2018-12-19T11:00:07.081Z,11.65
2018-12-19T11:02:54.724Z,11.40
2018-12-19T11:05:44.067Z,11.63
2018-12-19T11:08:33.994Z,9.43
2018-12-19T11:11:20.983Z,9.90
2018-12-19T11:14:08.503Z,9.37
2018-12-19T11:16:55.941Z,8.97
2018-12-19T11:19:43.194Z,11.43
2018-12-19T11:25:37.174Z,10.27
2018-12-19T11:28:24.590Z,11.43
2018-12-19T11:31:14.427Z,10.07
2018-12-19T11:34:06.432Z,10.30
2018-12-19T11:36:53.897Z,11.43
2018-12-19T11:39:43.857Z,11.83
2018-12-19T14:31:58.022Z,11.60
2018-12-19T14:34:46.057Z,12.20
2018-12-19T14:37:36.956Z,16.33
2018-12-19T14:40:29.071Z,12.93
2018-12-19T14:43:16.837Z,15.47
2018-12-19T14:46:07.840Z,14.07
2018-12-19T17:31:10.884Z,16.40
2018-12-19T17:56:06.621Z,14.37
2018-12-19T18:17:38.331Z,19.50
2018-12-19T18:48:44.597Z,21.10
2018-12-19T18:51:31.686Z,16.30
2018-12-19T19:13:01.599Z,14.90
2018-12-19T19:15:49.609Z,15.57
2018-12-19T19:18:37.054Z,16.67
2018-12-19T19:21:32.224Z,16.03
2018-12-19T19:24:27.189Z,14.90
2018-12-19T19:27:15.004Z,16.50
2018-12-19T19:33:11.136Z,17.57
2018-12-19T19:35:58.286Z,17.95
2018-12-19T19:38:46.192Z,15.23
2018-12-19T19:41:34.324Z,16.43
2018-12-19T19:44:21.768Z,15.33
2018-12-19T19:47:09.547Z,15.80
2018-12-19T19:50:00.507Z,15.67
2018-12-19T19:52:48.861Z,16.30
2018-12-19T19:55:36.576Z,17.43
2018-12-19T19:58:32.505Z,15.03
2018-12-19T20:01:37.115Z,17.60
2018-12-19T20:10:53.321Z,15.60
2018-12-19T20:20:10.377Z,14.73
2018-12-19T20:22:57.796Z,17.67
2018-12-19T20:28:53.225Z,17.00
2018-12-19T20:31:41.616Z,17.30
2018-12-19T20:34:29.733Z,16.03
2018-12-19T20:40:24.966Z,15.67
2018-12-19T20:49:40.455Z,21.10
2018-12-19T20:52:31.629Z,17.53
2018-12-19T20:55:18.696Z,19.03
2018-12-19T20:58:09.034Z,16.27
2018-12-19T21:00:57.448Z,14.93
2018-12-19T21:03:45.658Z,18.87
2018-12-19T21:06:33.049Z,17.97
2018-12-19T21:09:20.191Z,15.90
2018-12-19T21:12:10.009Z,17.00
2018-12-19T21:15:04.023Z,16.83
2018-12-19T21:18:09.732Z,17.20
2018-12-19T21:20:56.983Z,15.83
2018-12-19T21:23:52.596Z,18.47
2018-12-19T21:26:39.742Z,16.47
2018-12-19T21:29:27.948Z,17.13
2018-12-19T21:35:25.800Z,15.60
2018-12-19T21:44:30.151Z,16.53
2018-12-19T21:50:25.014Z,16.00
2018-12-19T21:53:20.949Z,18.13
2018-12-19T21:56:12.879Z,19.27
2018-12-19T21:59:07.377Z,17.93
2018-12-19T22:05:02.090Z,18.23
2018-12-19T22:07:52.383Z,19.03
2018-12-19T22:17:13.412Z,20.30
2018-12-19T22:20:00.916Z,20.10
2018-12-19T22:22:56.821Z,23.17
2018-12-19T22:25:46.435Z,20.90
2018-12-19T22:28:33.983Z,20.53
2018-12-19T22:31:21.604Z,23.67
2018-12-19T22:34:11.818Z,20.93
2018-12-19T22:37:03.184Z,22.40
2018-12-19T22:39:52.278Z,20.13
2018-12-19T22:42:43.673Z,20.07
2018-12-19T22:45:32.257Z,23.45
2018-12-19T22:48:21.239Z,21.03
2018-12-19T22:51:13.210Z,21.40
2018-12-19T22:54:08.451Z,24.50
2018-12-19T22:56:57.450Z,24.80
2018-12-19T23:03:10.186Z,21.73
2018-12-19T23:06:04.096Z,21.90
2018-12-19T23:08:51.920Z,25.03
2018-12-19T23:11:39.473Z,21.70
2018-12-19T23:17:43.349Z,23.50
2018-12-19T23:23:37.942Z,22.17
2018-12-19T23:26:25.620Z,23.63
2018-12-19T23:29:13.324Z,24.20
2018-12-19T23:32:01.391Z,23.23
2018-12-19T23:34:48.827Z,21.43
2018-12-19T23:37:39.141Z,29.73
2018-12-19T23:40:34.057Z,28.53
2018-12-19T23:43:22.476Z,29.23
2018-12-19T23:46:09.683Z,28.13
2018-12-19T23:52:21.975Z,25.23
2018-12-19T23:55:10.220Z,23.93
2018-12-19T23:57:57.862Z,25.43
